createdAt,value
2023-05-11T00:01:18.481Z,94.80
2023-05-11T00:03:45.397Z,94.80
2023-05-11T00:06:12.312Z,94.60
2023-05-11T00:08:39.177Z,94.80
2023-05-11T00:11:09.612Z,94.90
2023-05-11T00:13:36.471Z,94.90
2023-05-11T00:16:04.063Z,95.00
2023-05-11T00:18:31.009Z,95.10
2023-05-11T00:20:57.953Z,95.10
2023-05-11T00:23:24.823Z,95.10
2023-05-11T00:25:51.607Z,95.20
2023-05-11T00:28:18.549Z,95.10
2023-05-11T00:30:45.427Z,95.10
2023-05-11T00:33:12.357Z,95.00
2023-05-11T00:35:39.348Z,95.10
2023-05-11T00:38:06.426Z,95.20
2023-05-11T00:40:33.573Z,95.10
2023-05-11T00:43:01.077Z,95.20
2023-05-11T00:45:28.309Z,95.30
2023-05-11T00:47:55.251Z,95.10
2023-05-11T00:50:22.188Z,95.20
2023-05-11T00:52:49.069Z,95.30
2023-05-11T00:55:19.175Z,95.30
2023-05-11T00:57:46.346Z,95.40
2023-05-11T01:00:13.669Z,95.40
2023-05-11T01:02:41.357Z,95.40
2023-05-11T01:05:08.974Z,95.40
2023-05-11T01:07:59.862Z,95.50
2023-05-11T01:10:39.919Z,95.50
2023-05-11T01:13:24.548Z,95.50
2023-05-11T01:15:58.780Z,95.50
2023-05-11T01:18:40.379Z,95.50
2023-05-11T01:21:15.424Z,95.50
2023-05-11T01:23:59.753Z,95.60
2023-05-11T01:26:39.191Z,95.60
2023-05-11T01:29:35.095Z,95.80
2023-05-11T01:32:08.368Z,95.90
2023-05-11T01:34:39.556Z,96.10
2023-05-11T01:37:27.045Z,96.20
2023-05-11T01:39:59.871Z,96.30
2023-05-11T01:42:32.542Z,96.30
2023-05-11T01:45:00.799Z,96.40
2023-05-11T01:47:30.243Z,96.50
2023-05-11T01:49:57.801Z,96.50
2023-05-11T01:52:27.249Z,96.70
2023-05-11T01:54:56.202Z,96.80
2023-05-11T01:57:24.395Z,96.80
2023-05-11T01:59:53.732Z,97.00
2023-05-11T02:02:21.759Z,97.10
2023-05-11T02:04:50.101Z,97.30
2023-05-11T02:07:19.089Z,97.30
2023-05-11T02:09:47.395Z,97.80
2023-05-11T02:12:17.905Z,97.60
2023-05-11T02:14:46.696Z,97.90
2023-05-11T02:17:16.738Z,98.00
2023-05-11T02:19:44.890Z,98.20
2023-05-11T02:22:13.410Z,98.30
2023-05-11T02:24:41.375Z,98.40
2023-05-11T02:27:08.468Z,98.50
2023-05-11T02:29:35.519Z,98.80
2023-05-11T02:32:12.263Z,98.80
2023-05-11T02:34:42.822Z,98.60
2023-05-11T02:37:15.002Z,98.90
2023-05-11T02:39:48.374Z,99.20
2023-05-11T02:42:20.817Z,99.20
2023-05-11T02:44:56.627Z,99.00
2023-05-11T02:47:32.391Z,99.40
2023-05-11T02:50:04.221Z,99.50
2023-05-11T02:52:39.582Z,99.80
2023-05-11T02:55:07.959Z,99.90
2023-05-11T02:57:34.986Z,99.90
2023-05-11T03:00:05.700Z,99.90
2023-05-11T03:02:32.998Z,99.90
2023-05-11T03:04:59.953Z,99.90
2023-05-11T03:07:26.965Z,99.90
2023-05-11T03:09:53.847Z,99.90
2023-05-11T03:12:21.784Z,99.90
2023-05-11T03:14:49.411Z,99.90
2023-05-11T03:17:18.653Z,99.90
2023-05-11T03:19:46.121Z,99.90
2023-05-11T03:22:16.490Z,99.90
2023-05-11T03:24:45.102Z,99.90
2023-05-11T03:27:12.374Z,99.90
2023-05-11T03:29:43.687Z,99.90
2023-05-11T03:32:11.477Z,99.90
2023-05-11T03:34:39.225Z,99.90
2023-05-11T03:37:06.606Z,99.90
2023-05-11T03:39:35.340Z,99.90
2023-05-11T03:42:04.045Z,99.90
2023-05-11T03:44:32.811Z,99.90
2023-05-11T03:47:01.744Z,99.90
2023-05-11T03:49:29.614Z,99.90
2023-05-11T03:51:57.636Z,99.90
2023-05-11T03:54:26.301Z,99.90
2023-05-11T03:56:53.177Z,99.90
2023-05-11T03:59:20.593Z,99.90
2023-05-11T04:01:47.580Z,99.90
2023-05-11T04:04:14.460Z,99.90
2023-05-11T04:06:41.352Z,99.90
2023-05-11T04:09:18.076Z,99.90
2023-05-11T04:11:44.868Z,99.90
2023-05-11T04:14:11.741Z,99.90
2023-05-11T04:16:38.723Z,99.90
2023-05-11T04:19:06.993Z,99.90
2023-05-11T04:21:35.824Z,99.90
2023-05-11T04:24:03.541Z,99.90
2023-05-11T04:26:30.487Z,99.90
2023-05-11T04:28:57.362Z,99.90
2023-05-11T04:31:24.282Z,99.90
2023-05-11T04:33:51.241Z,99.90
2023-05-11T04:36:18.378Z,99.90
2023-05-11T04:38:45.561Z,99.90
2023-05-11T04:41:13.809Z,99.90
2023-05-11T04:43:41.003Z,99.90
2023-05-11T04:46:09.470Z,99.90
2023-05-11T04:48:36.335Z,99.90
2023-05-11T04:51:06.982Z,99.90
2023-05-11T04:53:38.903Z,99.90
2023-05-11T04:56:05.830Z,99.90
2023-05-11T04:58:32.663Z,99.90
2023-05-11T05:00:59.525Z,99.90
2023-05-11T05:03:26.535Z,99.90
2023-05-11T05:05:53.414Z,99.90
2023-05-11T05:08:21.559Z,99.90
2023-05-11T05:10:48.945Z,99.50
2023-05-11T05:13:16.968Z,99.20
2023-05-11T05:15:44.087Z,99.20
2023-05-11T05:18:11.010Z,99.30
2023-05-11T05:20:39.641Z,99.20
2023-05-11T05:23:06.528Z,98.60
2023-05-11T05:25:34.077Z,98.80
2023-05-11T05:28:01.024Z,98.60
2023-05-11T05:30:28.078Z,98.20
2023-05-11T05:32:55.317Z,97.60
2023-05-11T05:35:22.495Z,97.50
2023-05-11T05:37:49.813Z,97.50
2023-05-11T05:40:17.541Z,97.80
2023-05-11T05:42:47.850Z,97.00
2023-05-11T05:45:19.281Z,97.10
2023-05-11T05:47:47.219Z,96.90
2023-05-11T05:50:14.191Z,96.80
2023-05-11T05:52:42.095Z,97.20
2023-05-11T05:55:09.531Z,96.80
2023-05-11T05:57:36.755Z,96.90
2023-05-11T06:00:04.693Z,96.80
2023-05-11T06:02:39.730Z,96.60
2023-05-11T06:05:08.815Z,96.00
2023-05-11T06:07:35.657Z,95.40
2023-05-11T06:10:02.883Z,94.70
2023-05-11T06:12:31.285Z,94.50
2023-05-11T06:14:58.252Z,94.40
2023-05-11T06:17:25.571Z,94.40
2023-05-11T06:19:52.615Z,94.00
2023-05-11T06:22:23.586Z,94.10
2023-05-11T06:24:51.064Z,93.40
2023-05-11T06:27:18.955Z,93.40
2023-05-11T06:29:46.236Z,92.20
2023-05-11T06:32:13.177Z,91.40
2023-05-11T06:34:40.338Z,91.60
2023-05-11T06:37:08.454Z,91.00
2023-05-11T06:39:37.546Z,91.30
2023-05-11T06:42:08.090Z,90.60
2023-05-11T06:44:35.021Z,89.60
2023-05-11T06:47:01.900Z,90.00
2023-05-11T06:49:28.854Z,89.80
2023-05-11T06:51:55.743Z,88.90
2023-05-11T06:54:22.797Z,89.70
2023-05-11T06:56:49.661Z,87.70
2023-05-11T06:59:16.692Z,87.50
2023-05-11T07:01:43.916Z,87.50
2023-05-11T07:04:10.943Z,87.50
2023-05-11T07:06:37.805Z,87.30
2023-05-11T07:09:05.010Z,85.40
2023-05-11T07:11:32.216Z,84.80
2023-05-11T07:13:59.158Z,84.10
2023-05-11T07:16:26.097Z,84.10
2023-05-11T07:18:53.024Z,81.70
2023-05-11T07:21:22.089Z,83.00
2023-05-11T07:23:49.031Z,82.10
2023-05-11T07:26:15.802Z,82.90
2023-05-11T07:28:42.600Z,80.40
2023-05-11T07:31:09.384Z,79.90
2023-05-11T07:33:38.637Z,79.30
2023-05-11T07:36:06.787Z,77.70
2023-05-11T07:38:33.779Z,77.20
2023-05-11T07:41:00.635Z,75.90
2023-05-11T07:43:27.400Z,76.00
2023-05-11T07:45:54.342Z,77.00
2023-05-11T07:48:21.664Z,76.30
2023-05-11T07:50:49.602Z,76.00
2023-05-11T07:53:16.717Z,73.40
2023-05-11T07:55:43.549Z,73.20
2023-05-11T07:58:10.492Z,73.50
2023-05-11T08:00:37.736Z,72.50
2023-05-11T08:03:04.686Z,71.90
2023-05-11T08:05:33.367Z,71.70
2023-05-11T08:08:00.269Z,72.20
2023-05-11T08:10:27.084Z,70.70
2023-05-11T08:12:53.892Z,70.20
2023-05-11T08:15:21.288Z,68.20
2023-05-11T08:17:48.227Z,68.90
2023-05-11T08:20:15.169Z,69.50
2023-05-11T08:22:41.973Z,69.20
2023-05-11T08:25:09.097Z,68.20
2023-05-11T08:27:36.039Z,66.90
2023-05-11T08:30:03.562Z,68.80
2023-05-11T08:32:30.548Z,68.70
2023-05-11T08:34:57.794Z,67.50
2023-05-11T08:37:24.688Z,68.00
2023-05-11T08:39:51.750Z,68.20
2023-05-11T08:42:20.039Z,67.50
2023-05-11T08:44:49.222Z,66.70
2023-05-11T08:49:46.113Z,67.90
2023-05-11T08:52:16.292Z,66.50
2023-05-11T08:54:43.153Z,65.90
2023-05-11T08:57:11.008Z,65.50
2023-05-11T08:59:38.324Z,66.60
2023-05-11T09:02:06.455Z,66.90
2023-05-11T09:04:34.309Z,66.10
2023-05-11T09:07:01.262Z,65.70
2023-05-11T09:09:28.629Z,65.10
2023-05-11T09:11:55.712Z,65.00
2023-05-11T09:14:26.953Z,64.90
2023-05-11T09:16:54.557Z,64.80
2023-05-11T09:19:21.926Z,63.10
2023-05-11T09:21:48.940Z,64.50
2023-05-11T09:24:15.810Z,64.00
2023-05-11T09:26:42.710Z,64.10
2023-05-11T09:29:09.612Z,63.70
2023-05-11T09:31:47.389Z,64.10
2023-05-11T09:34:23.834Z,63.10
2023-05-11T09:36:55.090Z,62.90
2023-05-11T09:42:15.651Z,62.20
2023-05-11T09:44:44.008Z,62.30
2023-05-11T09:47:38.780Z,62.30
2023-05-11T09:50:18.851Z,62.80
2023-05-11T09:52:52.949Z,63.20
2023-05-11T09:55:19.986Z,62.50
2023-05-11T09:57:55.244Z,63.70
2023-05-11T10:00:22.220Z,63.50
2023-05-11T10:03:21.480Z,61.60
2023-05-11T10:05:59.758Z,62.00
2023-05-11T10:08:31.157Z,61.90
2023-05-11T10:10:58.360Z,61.80
2023-05-11T10:13:26.503Z,60.50
2023-05-11T10:15:55.395Z,61.20
2023-05-11T10:18:22.852Z,61.00
2023-05-11T10:20:50.057Z,60.80
2023-05-11T10:23:20.490Z,61.90
2023-05-11T10:25:48.065Z,60.40
2023-05-11T10:28:15.453Z,61.00
2023-05-11T10:30:43.073Z,60.80
2023-05-11T10:33:11.555Z,60.40
2023-05-11T10:35:39.187Z,60.60
2023-05-11T10:38:10.149Z,60.20
2023-05-11T10:40:40.860Z,59.80
2023-05-11T10:43:13.383Z,59.50
2023-05-11T10:46:01.300Z,59.70
2023-05-11T10:48:53.101Z,59.20
2023-05-11T10:51:44.184Z,59.40
2023-05-11T10:54:49.335Z,59.20
2023-05-11T10:57:40.497Z,60.00
2023-05-11T11:00:43.402Z,59.50
2023-05-11T11:03:14.761Z,59.70
2023-05-11T11:05:43.859Z,60.30
2023-05-11T11:08:11.181Z,57.60
2023-05-11T11:10:39.950Z,59.00
2023-05-11T11:13:08.698Z,59.40
2023-05-11T11:16:08.714Z,58.50
2023-05-11T11:18:35.716Z,58.10
2023-05-11T11:21:04.285Z,58.80
2023-05-11T11:23:40.509Z,58.80
2023-05-11T11:26:19.063Z,59.50
2023-05-11T11:28:54.815Z,59.50
2023-05-11T11:31:26.503Z,57.90
2023-05-11T11:33:56.188Z,58.70
2023-05-11T11:37:01.099Z,59.10
2023-05-11T11:39:30.565Z,57.20
2023-05-11T11:42:04.825Z,57.60
2023-05-11T11:44:33.898Z,57.90
2023-05-11T11:47:22.730Z,57.60
2023-05-11T11:49:54.183Z,56.40
2023-05-11T11:52:27.157Z,58.20
2023-05-11T11:54:56.406Z,59.40
2023-05-11T11:57:32.630Z,57.60
2023-05-11T12:00:09.036Z,57.60
2023-05-11T12:02:45.424Z,57.10
2023-05-11T12:05:20.159Z,59.50
2023-05-11T12:07:49.858Z,58.10
2023-05-11T12:10:18.410Z,58.80
2023-05-11T12:12:49.663Z,57.80
2023-05-11T12:15:42.707Z,56.20
2023-05-11T12:18:21.303Z,58.90
2023-05-11T12:20:48.317Z,57.90
2023-05-11T12:23:15.176Z,57.70
2023-05-11T12:25:41.967Z,56.60
2023-05-11T12:28:09.878Z,56.00
2023-05-11T12:30:36.682Z,56.50
2023-05-11T12:33:04.595Z,58.10
2023-05-11T12:35:33.973Z,57.00
2023-05-11T12:38:04.756Z,56.00
2023-05-11T12:40:31.953Z,57.10
2023-05-11T12:43:00.906Z,56.10
2023-05-11T12:45:29.202Z,56.40
2023-05-11T12:47:57.264Z,57.10
2023-05-11T12:50:24.916Z,55.80
2023-05-11T12:52:51.851Z,57.00
2023-05-11T12:55:31.161Z,58.70
2023-05-11T12:58:09.118Z,56.90
2023-05-11T13:00:36.127Z,55.90
2023-05-11T13:03:03.390Z,55.50
2023-05-11T13:05:30.897Z,55.30
2023-05-11T13:08:02.765Z,57.60
2023-05-11T13:10:30.494Z,57.90
2023-05-11T13:12:57.380Z,55.50
2023-05-11T13:15:25.538Z,56.10
2023-05-11T13:18:02.844Z,55.60
2023-05-11T13:20:33.038Z,56.50
2023-05-11T13:23:06.048Z,55.30
2023-05-11T13:25:34.484Z,55.50
2023-05-11T13:28:04.050Z,55.10
2023-05-11T13:30:33.397Z,54.80
2023-05-11T13:33:01.757Z,54.90
2023-05-11T13:35:28.622Z,55.20
2023-05-11T13:37:55.485Z,55.30
2023-05-11T13:40:22.337Z,55.40
2023-05-11T13:42:49.205Z,54.40
2023-05-11T13:45:16.290Z,58.00
2023-05-11T13:47:45.538Z,55.10
2023-05-11T13:50:12.656Z,55.00
2023-05-11T13:52:40.422Z,55.20
2023-05-11T13:55:07.904Z,55.80
2023-05-11T13:57:34.912Z,55.90
2023-05-11T14:00:01.778Z,54.70
2023-05-11T14:02:38.721Z,55.10
2023-05-11T14:05:05.976Z,54.60
2023-05-11T14:07:43.269Z,55.50
2023-05-11T14:10:13.865Z,54.90
2023-05-11T14:12:41.304Z,55.40
2023-05-11T14:15:08.853Z,54.20
2023-05-11T14:17:35.900Z,55.30
2023-05-11T14:20:03.993Z,55.20
2023-05-11T14:22:30.934Z,56.20
2023-05-11T14:24:57.783Z,54.80
2023-05-11T14:27:24.634Z,53.80
2023-05-11T14:29:52.194Z,55.10
2023-05-11T14:32:19.693Z,53.30
2023-05-11T14:34:47.719Z,54.50
2023-05-11T14:37:14.695Z,54.60
2023-05-11T14:39:41.775Z,54.30
2023-05-11T14:42:09.001Z,55.60
2023-05-11T14:44:35.902Z,54.30
2023-05-11T14:47:02.828Z,54.30
2023-05-11T14:49:29.660Z,53.10
2023-05-11T14:51:57.707Z,53.50
2023-05-11T14:54:24.749Z,53.60
2023-05-11T14:56:54.087Z,55.30
2023-05-11T14:59:21.905Z,53.60
2023-05-11T15:01:49.571Z,53.70
2023-05-11T15:04:16.984Z,53.60
2023-05-11T15:06:44.136Z,53.80
2023-05-11T15:09:11.035Z,55.10
2023-05-11T15:11:37.875Z,53.00
2023-05-11T15:14:06.453Z,52.80
2023-05-11T15:16:33.750Z,52.50
2023-05-11T15:19:00.710Z,54.40
2023-05-11T15:21:27.847Z,53.30
2023-05-11T15:23:54.861Z,53.40
2023-05-11T15:26:22.813Z,53.80
2023-05-11T15:28:50.066Z,52.60
2023-05-11T15:31:16.985Z,53.70
2023-05-11T15:33:44.853Z,53.20
2023-05-11T15:36:13.942Z,51.70
2023-05-11T15:38:41.419Z,52.40
2023-05-11T15:41:08.273Z,51.90
2023-05-11T15:43:35.358Z,52.50
2023-05-11T15:46:03.672Z,51.80
2023-05-11T15:48:30.742Z,53.00
2023-05-11T15:50:59.763Z,52.50
2023-05-11T15:53:26.915Z,53.10
2023-05-11T15:55:55.523Z,53.00
2023-05-11T15:58:22.827Z,51.80
2023-05-11T16:00:49.840Z,51.70
2023-05-11T16:03:17.197Z,51.70
2023-05-11T16:05:44.904Z,51.20
2023-05-11T16:08:12.485Z,51.20
2023-05-11T16:10:39.335Z,53.00
2023-05-11T16:13:06.408Z,50.80
2023-05-11T16:15:33.262Z,51.50
2023-05-11T16:18:02.358Z,51.50
2023-05-11T16:20:31.748Z,51.60
2023-05-11T16:22:58.556Z,51.90
2023-05-11T16:25:25.467Z,51.30
2023-05-11T16:27:52.241Z,51.40
2023-05-11T16:30:24.888Z,50.60
2023-05-11T16:32:53.705Z,51.40
2023-05-11T16:35:20.955Z,51.10
2023-05-11T16:37:48.299Z,51.30
2023-05-11T16:40:19.048Z,50.80
2023-05-11T16:42:47.383Z,51.20
2023-05-11T16:45:15.095Z,51.20
2023-05-11T16:47:43.102Z,51.50
2023-05-11T16:50:10.803Z,50.70
2023-05-11T16:52:37.596Z,50.60
2023-05-11T16:55:04.954Z,51.00
2023-05-11T16:57:31.832Z,50.60
2023-05-11T16:59:58.685Z,51.00
2023-05-11T17:02:25.699Z,50.50
2023-05-11T17:04:52.899Z,51.60
2023-05-11T17:07:19.728Z,51.20
2023-05-11T17:09:46.572Z,51.10
2023-05-11T17:12:13.406Z,50.30
2023-05-11T17:14:40.245Z,50.50
2023-05-11T17:17:08.141Z,50.80
2023-05-11T17:19:34.963Z,52.50
2023-05-11T17:22:01.804Z,51.30
2023-05-11T17:24:28.765Z,52.00
2023-05-11T17:26:55.797Z,57.50
2023-05-11T17:29:23.125Z,57.80
2023-05-11T17:31:51.909Z,59.00
2023-05-11T17:34:20.490Z,60.00
2023-05-11T17:36:48.667Z,61.50
2023-05-11T17:39:17.038Z,63.20
2023-05-11T17:41:44.018Z,63.50
2023-05-11T17:44:11.153Z,64.20
2023-05-11T17:46:38.334Z,64.40
2023-05-11T17:49:06.582Z,65.00
2023-05-11T17:51:33.564Z,65.00
2023-05-11T17:54:00.373Z,66.10
2023-05-11T17:56:27.306Z,65.70
2023-05-11T17:58:54.630Z,67.30
2023-05-11T18:01:22.641Z,67.50
2023-05-11T18:03:49.943Z,68.50
2023-05-11T18:06:17.132Z,68.60
2023-05-11T18:08:44.004Z,68.70
2023-05-11T18:11:12.781Z,68.10
2023-05-11T18:13:39.981Z,68.60
2023-05-11T18:16:07.262Z,67.90
2023-05-11T18:18:34.504Z,68.40
2023-05-11T18:21:08.497Z,68.30
2023-05-11T18:23:35.281Z,69.40
2023-05-11T18:26:02.453Z,69.40
2023-05-11T18:28:29.827Z,70.00
2023-05-11T18:30:57.352Z,69.30
2023-05-11T18:33:24.337Z,69.80
2023-05-11T18:35:52.157Z,69.00
2023-05-11T18:38:19.123Z,68.50
2023-05-11T18:40:46.005Z,68.00
2023-05-11T18:43:13.815Z,67.80
2023-05-11T18:45:41.148Z,67.60
2023-05-11T18:48:08.219Z,67.30
2023-05-11T18:50:35.794Z,66.20
2023-05-11T18:53:03.033Z,66.50
2023-05-11T18:55:35.315Z,66.50
2023-05-11T18:58:05.300Z,66.80
2023-05-11T19:00:36.867Z,66.70
2023-05-11T19:03:04.160Z,66.90
2023-05-11T19:05:31.408Z,67.50
2023-05-11T19:07:58.273Z,67.40
2023-05-11T19:10:25.094Z,68.30
2023-05-11T19:12:51.956Z,68.70
2023-05-11T19:15:19.158Z,68.70
2023-05-11T19:17:46.479Z,69.10
2023-05-11T19:20:13.662Z,69.10
2023-05-11T19:22:40.658Z,69.80
2023-05-11T19:25:08.559Z,70.30
2023-05-11T19:27:35.366Z,71.00
2023-05-11T19:30:03.398Z,71.10
2023-05-11T19:32:30.733Z,71.80
2023-05-11T19:34:57.504Z,72.10
2023-05-11T19:37:24.448Z,72.40
2023-05-11T19:39:51.594Z,72.80
2023-05-11T19:42:25.870Z,72.70
2023-05-11T19:44:58.837Z,73.80
2023-05-11T19:47:25.786Z,73.90
2023-05-11T19:49:52.657Z,73.70
2023-05-11T19:52:19.467Z,74.20
2023-05-11T19:54:46.685Z,74.60
2023-05-11T19:57:13.575Z,74.50
2023-05-11T19:59:40.535Z,74.70
2023-05-11T20:02:07.580Z,75.30
2023-05-11T20:04:34.547Z,75.60
2023-05-11T20:07:01.365Z,75.90
2023-05-11T20:09:28.233Z,75.90
2023-05-11T20:11:55.039Z,75.70
2023-05-11T20:14:22.871Z,76.60
2023-05-11T20:16:49.679Z,77.10
2023-05-11T20:19:16.555Z,76.90
2023-05-11T20:21:43.369Z,77.10
2023-05-11T20:24:10.176Z,76.10
2023-05-11T20:26:37.144Z,75.60
2023-05-11T20:29:04.427Z,75.20
2023-05-11T20:31:32.797Z,75.00
2023-05-11T20:36:30.486Z,75.00
2023-05-11T20:38:57.335Z,75.10
2023-05-11T20:41:24.135Z,75.60
2023-05-11T20:43:52.501Z,75.70
2023-05-11T20:46:19.373Z,76.70
2023-05-11T20:48:51.490Z,76.30
2023-05-11T20:51:23.101Z,76.50
2023-05-11T20:53:50.709Z,76.90
2023-05-11T20:56:17.498Z,76.80
2023-05-11T20:58:47.414Z,77.10
2023-05-11T21:01:14.379Z,77.20
2023-05-11T21:03:41.501Z,77.40
2023-05-11T21:06:08.869Z,77.60
2023-05-11T21:08:36.271Z,77.70
2023-05-11T21:11:03.237Z,78.00
2023-05-11T21:13:30.270Z,78.50
2023-05-11T21:15:57.349Z,78.40
2023-05-11T21:18:29.072Z,79.10
2023-05-11T21:20:55.982Z,79.00
2023-05-11T21:23:22.809Z,79.00
2023-05-11T21:25:53.658Z,79.30
2023-05-11T21:28:20.912Z,79.40
2023-05-11T21:30:47.782Z,79.90
2023-05-11T21:33:15.334Z,79.90
2023-05-11T21:35:42.229Z,80.40
2023-05-11T21:38:09.729Z,80.30
2023-05-11T21:40:36.751Z,80.40
2023-05-11T21:43:03.666Z,81.10
2023-05-11T21:45:30.527Z,81.30
2023-05-11T21:47:58.675Z,81.70
2023-05-11T21:50:25.890Z,81.50
2023-05-11T21:52:53.059Z,81.90
2023-05-11T21:55:19.952Z,82.50
2023-05-11T21:57:46.855Z,82.60
2023-05-11T22:00:18.515Z,83.10
2023-05-11T22:02:45.844Z,83.30
2023-05-11T22:05:12.769Z,83.50
2023-05-11T22:07:39.654Z,83.80
2023-05-11T22:10:07.004Z,84.20
2023-05-11T22:12:33.846Z,84.60
2023-05-11T22:15:00.648Z,84.80
2023-05-11T22:17:27.544Z,85.40
2023-05-11T22:19:54.437Z,85.80
2023-05-11T22:22:21.264Z,86.00
2023-05-11T22:24:48.171Z,86.50
2023-05-11T22:27:16.109Z,87.00
2023-05-11T22:29:43.622Z,87.30
2023-05-11T22:32:11.945Z,87.70
2023-05-11T22:34:38.758Z,88.00
2023-05-11T22:37:05.804Z,88.30
2023-05-11T22:39:33.364Z,88.70
2023-05-11T22:42:00.244Z,89.80
2023-05-11T22:44:28.289Z,90.20
2023-05-11T22:46:56.445Z,90.10
2023-05-11T22:49:23.300Z,90.30
2023-05-11T22:51:50.162Z,90.60
2023-05-11T22:54:17.072Z,90.70
2023-05-11T22:56:43.842Z,90.80
2023-05-11T22:59:10.619Z,90.70
2023-05-11T23:01:37.553Z,90.80
2023-05-11T23:04:04.629Z,90.80
2023-05-11T23:06:32.646Z,91.00
2023-05-11T23:08:59.457Z,91.00
2023-05-11T23:11:26.473Z,91.00
2023-05-11T23:13:53.408Z,91.10
2023-05-11T23:16:20.355Z,91.10
2023-05-11T23:18:47.393Z,91.10
2023-05-11T23:21:14.360Z,91.30
2023-05-11T23:23:44.232Z,91.20
2023-05-11T23:26:11.155Z,91.20
2023-05-11T23:28:38.065Z,91.30
2023-05-11T23:31:05.144Z,91.30
2023-05-11T23:33:32.794Z,91.30
2023-05-11T23:36:00.061Z,91.40
2023-05-11T23:38:27.885Z,91.30
2023-05-11T23:40:54.709Z,91.30
2023-05-11T23:43:22.699Z,91.40
2023-05-11T23:45:57.471Z,91.40
2023-05-11T23:48:24.625Z,91.40
2023-05-11T23:50:51.472Z,91.50
2023-05-11T23:53:18.311Z,91.20
2023-05-11T23:55:50.390Z,91.30
2023-05-11T23:58:17.193Z,91.30
